createdAt,value
2023-04-04T00:02:19.002Z,1.87
2023-04-04T00:08:11.977Z,1.87
2023-04-04T00:14:05.862Z,1.60
2023-04-04T00:20:00.213Z,1.70
2023-04-04T00:25:53.598Z,1.60
2023-04-04T00:31:47.207Z,2.97
2023-04-04T00:37:41.599Z,4.53
2023-04-04T00:43:36.753Z,2.33
2023-04-04T00:49:30.163Z,4.97
2023-04-04T00:55:25.008Z,2.30
2023-04-04T01:01:18.715Z,2.90
2023-04-04T01:07:12.588Z,1.87
2023-04-04T01:13:08.444Z,2.20
2023-04-04T01:19:01.637Z,1.47
2023-04-04T01:24:57.726Z,3.23
2023-04-04T01:30:54.554Z,1.90
2023-04-04T01:36:54.847Z,4.77
2023-04-04T01:42:48.315Z,2.50
2023-04-04T01:48:43.129Z,1.83
2023-04-04T01:54:37.105Z,1.93
2023-04-04T02:00:30.763Z,4.30
2023-04-04T02:06:25.499Z,4.63
2023-04-04T02:12:19.104Z,2.30
2023-04-04T02:18:12.301Z,1.63
2023-04-04T02:24:08.038Z,1.57
2023-04-04T02:30:01.493Z,2.50
2023-04-04T02:35:58.200Z,2.83
2023-04-04T02:41:53.068Z,2.60
2023-04-04T02:47:51.758Z,2.50
2023-04-04T02:53:49.413Z,1.50
2023-04-04T02:59:51.798Z,1.67
2023-04-04T03:05:46.004Z,1.90
2023-04-04T03:11:39.589Z,2.13
2023-04-04T03:17:34.456Z,3.73
2023-04-04T03:23:28.016Z,4.23
2023-04-04T03:29:21.103Z,1.50
2023-04-04T03:35:16.635Z,2.40
2023-04-04T03:41:10.326Z,3.10
2023-04-04T03:47:03.744Z,2.13
2023-04-04T03:53:01.174Z,1.53
2023-04-04T03:58:55.859Z,1.60
2023-04-04T04:04:49.184Z,2.50
2023-04-04T04:10:43.563Z,3.07
2023-04-04T04:16:40.493Z,3.70
2023-04-04T04:22:34.440Z,1.90
2023-04-04T04:28:34.136Z,4.97
2023-04-04T04:34:30.209Z,4.70
2023-04-04T04:40:26.367Z,3.33
2023-04-04T04:46:30.241Z,3.70
2023-04-04T04:52:24.875Z,2.37
2023-04-04T04:58:17.966Z,2.73
2023-04-04T05:04:17.971Z,3.57
2023-04-04T05:10:24.108Z,3.13
2023-04-04T05:16:18.226Z,3.67
2023-04-04T05:22:15.268Z,1.70
2023-04-04T05:28:15.570Z,3.70
2023-04-04T05:34:09.396Z,3.30
2023-04-04T05:40:06.488Z,4.50
2023-04-04T05:46:00.692Z,2.70
2023-04-04T05:51:57.760Z,2.40
2023-04-04T05:57:53.640Z,3.27
2023-04-04T06:03:57.027Z,2.23
2023-04-04T06:09:52.493Z,2.40
2023-04-04T06:15:48.522Z,2.10
2023-04-04T06:21:42.610Z,2.93
2023-04-04T06:27:37.426Z,3.00
2023-04-04T06:33:34.387Z,3.33
2023-04-04T06:39:28.018Z,11.40
2023-04-04T06:45:24.601Z,3.57
2023-04-04T06:51:19.529Z,4.90
2023-04-04T06:57:13.229Z,6.07
2023-04-04T07:03:07.227Z,4.90
2023-04-04T07:09:02.088Z,7.87
2023-04-04T07:14:55.113Z,7.10
2023-04-04T07:20:48.596Z,4.87
2023-04-04T07:26:43.434Z,2.27
2023-04-04T07:32:38.065Z,2.17
2023-04-04T07:38:31.557Z,4.03
2023-04-04T07:44:26.352Z,1.87
2023-04-04T07:50:19.483Z,7.00
2023-04-04T07:56:12.880Z,3.13
2023-04-04T08:02:07.574Z,4.00
2023-04-04T08:08:00.853Z,1.30
2023-04-04T08:13:54.150Z,2.50
2023-04-04T08:19:48.453Z,3.07
2023-04-04T08:25:41.414Z,2.00
2023-04-04T08:31:35.338Z,4.47
2023-04-04T08:37:31.375Z,1.73
2023-04-04T08:43:26.594Z,1.57
2023-04-04T08:49:21.816Z,1.93
2023-04-04T08:55:16.479Z,1.53
2023-04-04T09:01:10.024Z,1.20
2023-04-04T09:07:05.529Z,1.77
2023-04-04T09:13:12.589Z,1.33
2023-04-04T09:19:09.264Z,1.43
2023-04-04T09:25:02.188Z,2.00
2023-04-04T09:30:56.531Z,1.40
2023-04-04T09:36:49.592Z,1.00
2023-04-04T09:42:43.132Z,1.77
2023-04-04T09:48:37.940Z,1.50
2023-04-04T09:54:32.935Z,1.30
2023-04-04T10:00:31.379Z,1.23
2023-04-04T10:06:27.318Z,1.67
2023-04-04T10:12:24.376Z,1.40
2023-04-04T10:18:18.115Z,1.43
2023-04-04T10:24:14.560Z,1.57
2023-04-04T10:30:10.090Z,1.37
2023-04-04T10:36:05.155Z,1.30
2023-04-04T10:42:02.017Z,1.20
2023-04-04T10:47:57.239Z,1.00
2023-04-04T10:53:52.021Z,1.10
2023-04-04T11:00:07.133Z,1.60
2023-04-04T11:06:01.929Z,2.20
2023-04-04T11:12:10.868Z,2.30
2023-04-04T11:18:17.514Z,1.27
2023-04-04T11:24:20.332Z,2.27
2023-04-04T11:30:14.922Z,2.57
2023-04-04T11:36:24.956Z,1.33
2023-04-04T11:42:18.671Z,3.03
2023-04-04T11:48:13.159Z,2.60
2023-04-04T11:54:15.759Z,1.20
2023-04-04T12:00:12.164Z,1.03
2023-04-04T12:06:05.451Z,3.53
2023-04-04T12:12:00.832Z,1.47
2023-04-04T12:17:54.306Z,1.10
2023-04-04T12:23:49.769Z,1.30
2023-04-04T12:29:45.978Z,1.43
2023-04-04T12:35:39.201Z,2.47
2023-04-04T12:41:34.380Z,1.30
2023-04-04T12:47:29.456Z,1.13
2023-04-04T12:59:23.212Z,1.63
2023-04-04T13:05:17.875Z,2.27
2023-04-04T13:11:11.304Z,2.30
2023-04-04T13:17:08.091Z,1.37
2023-04-04T13:23:03.140Z,1.53
2023-04-04T13:28:56.539Z,1.17
2023-04-04T13:34:50.028Z,1.37
2023-04-04T13:40:44.776Z,1.27
2023-04-04T13:46:38.378Z,3.00
2023-04-04T13:52:31.833Z,3.33
2023-04-04T13:58:26.860Z,1.90
2023-04-04T14:04:23.767Z,2.03
2023-04-04T14:10:18.248Z,4.87
2023-04-04T14:16:12.623Z,1.47
2023-04-04T14:22:06.348Z,1.70
2023-04-04T14:27:59.775Z,2.27
2023-04-04T14:33:54.083Z,1.10
2023-04-04T14:39:47.512Z,1.23
2023-04-04T14:45:42.070Z,2.80
2023-04-04T14:51:36.833Z,3.30
2023-04-04T14:57:29.992Z,1.80
2023-04-04T15:03:25.401Z,1.30
2023-04-04T15:09:19.749Z,1.97
2023-04-04T15:15:13.669Z,1.10
2023-04-04T15:21:06.962Z,2.03
2023-04-04T15:27:01.898Z,5.70
2023-04-04T15:32:56.242Z,1.33
2023-04-04T15:38:49.700Z,1.53
2023-04-04T15:44:44.587Z,1.40
2023-04-04T15:50:38.161Z,3.77
2023-04-04T15:56:31.494Z,2.07
2023-04-04T16:02:26.011Z,1.27
2023-04-04T16:08:19.251Z,1.70
2023-04-04T16:14:13.150Z,1.63
2023-04-04T16:20:10.030Z,1.80
2023-04-04T16:26:03.480Z,2.27
2023-04-04T16:31:56.846Z,2.73
2023-04-04T16:37:51.271Z,3.00
2023-04-04T16:43:48.692Z,2.10
2023-04-04T16:49:42.504Z,1.87
2023-04-04T16:55:38.629Z,1.73
2023-04-04T17:01:32.396Z,2.60
2023-04-04T17:07:25.493Z,2.93
2023-04-04T17:13:20.513Z,2.20
2023-04-04T17:19:14.737Z,2.17
2023-04-04T17:25:09.523Z,3.33
2023-04-04T17:31:05.054Z,2.07
2023-04-04T17:36:58.112Z,2.50
2023-04-04T17:42:51.638Z,5.40
2023-04-04T17:48:45.969Z,9.17
2023-04-04T17:54:39.405Z,8.90
2023-04-04T18:00:32.815Z,6.07
2023-04-04T18:06:27.141Z,2.40
2023-04-04T18:12:20.108Z,2.13
2023-04-04T18:18:13.539Z,2.57
2023-04-04T18:24:11.569Z,5.07
2023-04-04T18:30:05.057Z,2.73
2023-04-04T18:36:00.402Z,3.40
2023-04-04T18:41:55.547Z,3.90
2023-04-04T18:47:48.544Z,6.67
2023-04-04T18:53:42.078Z,3.50
2023-04-04T18:59:36.415Z,3.00
2023-04-04T19:05:34.116Z,3.00
2023-04-04T19:11:27.287Z,4.17
2023-04-04T19:17:22.365Z,5.30
2023-04-04T19:23:15.420Z,6.47
2023-04-04T19:29:09.801Z,4.90
2023-04-04T19:35:13.533Z,5.67
2023-04-04T19:41:10.363Z,6.90
2023-04-04T19:47:03.804Z,10.97
2023-04-04T19:52:59.363Z,7.03
2023-04-04T19:58:55.291Z,5.17
2023-04-04T20:04:48.796Z,5.77
2023-04-04T20:10:44.016Z,5.17
2023-04-04T20:16:38.383Z,3.80
2023-04-04T20:22:31.782Z,3.53
2023-04-04T20:28:28.200Z,5.80
2023-04-04T20:34:37.896Z,7.93
2023-04-04T20:40:40.499Z,4.00
2023-04-04T20:46:37.302Z,4.43
2023-04-04T20:52:30.733Z,3.70
2023-04-04T20:58:29.016Z,4.40
2023-04-04T21:04:26.533Z,5.57
2023-04-04T21:10:25.207Z,6.67
2023-04-04T21:16:23.987Z,13.00
2023-04-04T21:22:19.310Z,5.10
2023-04-04T21:28:13.149Z,5.17
2023-04-04T21:34:11.779Z,3.90
2023-04-04T21:40:09.573Z,5.90
2023-04-04T21:46:03.053Z,3.93
2023-04-04T21:51:56.452Z,3.43
2023-04-04T21:57:51.181Z,5.43
2023-04-04T22:03:44.569Z,3.43
2023-04-04T22:09:40.393Z,4.33
2023-04-04T22:15:35.125Z,7.20
2023-04-04T22:21:28.135Z,6.60
2023-04-04T22:27:21.063Z,5.40
2023-04-04T22:33:15.833Z,6.27
2023-04-04T22:39:09.220Z,5.43
2023-04-04T22:45:02.237Z,9.43
2023-04-04T22:50:59.081Z,5.77
2023-04-04T22:56:52.472Z,7.20
2023-04-04T23:02:46.537Z,5.47
2023-04-04T23:08:41.818Z,5.27
2023-04-04T23:14:39.324Z,5.83
2023-04-04T23:20:33.278Z,4.90
2023-04-04T23:26:28.328Z,4.83
2023-04-04T23:32:21.675Z,4.47
2023-04-04T23:38:14.606Z,4.10
2023-04-04T23:44:08.928Z,5.00
2023-04-04T23:50:02.520Z,4.13
2023-04-04T23:55:55.847Z,4.23
